Time;durP1;ratioP1;P1;durP2;ratioP2;P2;SDS_P1;SDS_P2;PMS_P1;PMS_P2;Temp;Humidity;BMP_temperature;BMP_pressure;BME280_temperature;BME280_humidity;BME280_pressure;Samples;Min_cycle;Max_cycle;Signal;HPM_P1;HPM_P2
2023/06/29 00:01:47;;;;;;;9.70;8.65;;;20.90;99.90;;;;;;5053464;28;20182;-71
2023/06/29 00:04:21;;;;;;;8.18;6.95;;;20.80;99.90;;;;;;5052159;28;20701;-71
2023/06/29 00:06:49;;;;;;;10.18;8.68;;;20.80;99.90;;;;;;5053462;28;20170;-71
2023/06/29 00:09:16;;;;;;;8.88;7.18;;;20.80;99.90;;;;;;5037548;28;20270;-71
2023/06/29 00:11:43;;;;;;;8.25;7.45;;;20.70;99.90;;;;;;5053722;28;20708;-71
2023/06/29 00:14:08;;;;;;;13.85;8.63;;;20.70;99.90;;;;;;5053177;28;20665;-71
2023/06/29 00:16:35;;;;;;;8.13;7.30;;;20.70;99.90;;;;;;5053798;28;20179;-71
2023/06/29 00:19:01;;;;;;;9.32;8.27;;;20.70;99.90;;;;;;5053103;28;20662;-71
2023/06/29 00:21:28;;;;;;;11.00;7.55;;;20.70;99.90;;;;;;5053468;28;20202;-71
2023/06/29 00:23:54;;;;;;;9.07;6.60;;;20.60;99.90;;;;;;5053142;28;20234;-71
2023/06/29 00:26:20;;;;;;;9.20;8.30;;;20.60;99.90;;;;;;5053393;28;20469;-71
2023/06/29 00:28:46;;;;;;;7.68;6.95;;;20.50;99.90;;;;;;5053184;28;20267;-72
2023/06/29 00:31:12;;;;;;;10.27;7.65;;;20.50;99.90;;;;;;5053461;28;20171;-71
2023/06/29 00:33:37;;;;;;;10.23;7.75;;;20.50;99.90;;;;;;5051865;28;20274;-71
2023/06/29 00:36:03;;;;;;;8.77;7.43;;;20.50;99.90;;;;;;5052973;28;20182;-71
2023/06/29 00:38:29;;;;;;;7.47;6.80;;;20.50;99.90;;;;;;5053048;28;20508;-71
2023/06/29 00:40:54;;;;;;;7.47;6.73;;;20.50;99.90;;;;;;5053262;28;20229;-71
2023/06/29 00:43:20;;;;;;;8.67;7.13;;;20.50;99.90;;;;;;5052586;28;20276;-71
2023/06/29 00:45:46;;;;;;;10.70;7.85;;;20.50;99.90;;;;;;5053280;28;20232;-71
2023/06/29 00:48:12;;;;;;;10.20;7.70;;;20.50;99.90;;;;;;5053197;28;20182;-71
2023/06/29 00:50:39;;;;;;;10.85;7.75;;;20.50;99.90;;;;;;5052945;28;20611;-70
2023/06/29 00:53:05;;;;;;;8.45;7.57;;;20.50;99.90;;;;;;5050994;28;20202;-71
2023/06/29 00:55:30;;;;;;;11.33;7.83;;;20.40;99.90;;;;;;5052815;28;20171;-71
2023/06/29 00:57:56;;;;;;;10.50;9.65;;;20.30;99.90;;;;;;5052068;28;20262;-71
2023/06/29 01:00:21;;;;;;;12.00;10.93;;;20.30;99.90;;;;;;5052930;28;20201;-71
2023/06/29 01:02:48;;;;;;;12.48;11.40;;;20.30;99.90;;;;;;5052338;28;20178;-71
2023/06/29 01:05:15;;;;;;;12.07;11.10;;;20.30;99.90;;;;;;5052699;28;20225;-71
2023/06/29 01:07:45;;;;;;;9.57;8.63;;;20.30;99.90;;;;;;5052257;28;20174;-71
2023/06/29 01:10:14;;;;;;;8.93;8.05;;;20.30;99.90;;;;;;5052557;28;20171;-71
2023/06/29 01:12:41;;;;;;;9.60;8.75;;;20.20;99.90;;;;;;5052203;28;20261;-71
2023/06/29 01:15:07;;;;;;;9.98;8.98;;;20.20;99.90;;;;;;5052255;28;20201;-71
2023/06/29 01:17:37;;;;;;;10.23;8.25;;;20.20;99.90;;;;;;5052328;28;20171;-71
2023/06/29 01:20:03;;;;;;;10.45;9.55;;;20.20;99.90;;;;;;5052487;28;20240;-71
2023/06/29 01:22:44;;;;;;;12.07;9.80;;;20.10;99.90;;;;;;5052293;28;20189;-71
2023/06/29 01:25:11;;;;;;;13.45;12.55;;;20.10;99.90;;;;;;5052315;28;20677;-71
2023/06/29 01:27:43;;;;;;;12.27;11.23;;;20.10;99.90;;;;;;5052028;28;20213;-71
2023/06/29 01:30:13;;;;;;;15.17;13.87;;;20.00;99.90;;;;;;5052369;28;20179;-71
2023/06/29 01:32:39;;;;;;;13.63;10.53;;;20.00;99.90;;;;;;5051733;28;20287;-71
2023/06/29 01:35:07;;;;;;;9.57;8.82;;;20.00;99.90;;;;;;5052184;28;20218;-71
2023/06/29 01:37:44;;;;;;;10.33;9.30;;;19.90;99.90;;;;;;5051769;28;20182;-71
2023/06/29 01:40:13;;;;;;;9.82;7.70;;;19.80;99.90;;;;;;5052223;28;20182;-71
2023/06/29 01:42:40;;;;;;;11.93;8.30;;;19.70;99.90;;;;;;5051736;28;20186;-71
2023/06/29 01:45:07;;;;;;;8.00;7.30;;;19.60;99.90;;;;;;5035085;28;20210;-71
2023/06/29 01:47:33;;;;;;;7.93;7.20;;;19.70;99.90;;;;;;5051917;28;20515;-71
2023/06/29 01:50:00;;;;;;;11.27;7.40;;;19.60;99.90;;;;;;5051563;28;20305;-71
2023/06/29 01:52:27;;;;;;;9.63;7.80;;;19.60;99.90;;;;;;5050411;28;20175;-71
2023/06/29 01:54:53;;;;;;;9.97;7.50;;;19.70;99.90;;;;;;5051263;28;20252;-71
2023/06/29 01:57:18;;;;;;;10.87;7.23;;;19.60;99.90;;;;;;5052321;28;20615;-71
2023/06/29 01:59:45;;;;;;;9.45;7.90;;;19.70;99.90;;;;;;5051781;28;20179;-71
2023/06/29 02:02:10;;;;;;;8.35;7.38;;;19.60;99.90;;;;;;5051711;28;20175;-71
2023/06/29 02:04:36;;;;;;;14.07;8.73;;;19.70;99.90;;;;;;5051111;28;20559;-71
2023/06/29 02:07:02;;;;;;;11.13;8.63;;;19.70;99.90;;;;;;5050891;28;20240;-71
2023/06/29 02:09:27;;;;;;;12.55;8.98;;;19.70;99.90;;;;;;5051143;28;20642;-71
2023/06/29 02:11:53;;;;;;;8.17;7.27;;;19.70;99.90;;;;;;5051026;28;20665;-71
2023/06/29 02:14:18;;;;;;;9.73;7.20;;;19.70;99.90;;;;;;5051134;28;20607;-71
2023/06/29 02:16:46;;;;;;;9.87;7.87;;;19.60;99.90;;;;;;5049987;28;20232;-71
2023/06/29 02:19:12;;;;;;;12.30;7.43;;;19.60;99.90;;;;;;5051363;28;20201;-71
2023/06/29 02:21:37;;;;;;;12.27;8.40;;;19.60;99.90;;;;;;5051201;28;20167;-71
2023/06/29 02:24:03;;;;;;;11.23;7.13;;;19.50;99.90;;;;;;5050598;28;20210;-70
2023/06/29 02:26:29;;;;;;;7.53;6.80;;;19.50;99.90;;;;;;5051201;28;20247;-71
2023/06/29 02:28:55;;;;;;;8.23;7.43;;;19.40;99.90;;;;;;5050903;28;20588;-71
2023/06/29 02:31:20;;;;;;;10.73;8.23;;;19.40;99.90;;;;;;5051085;28;20262;-71
2023/06/29 02:33:47;;;;;;;9.13;7.80;;;19.30;99.90;;;;;;5050221;28;20573;-71
2023/06/29 02:36:13;;;;;;;11.73;8.30;;;19.30;99.90;;;;;;5051407;28;20587;-70
2023/06/29 02:38:38;;;;;;;9.00;8.10;;;19.20;99.90;;;;;;5050597;28;20258;-70
2023/06/29 02:41:04;;;;;;;8.47;7.70;;;19.20;99.90;;;;;;5051378;28;20272;-70
2023/06/29 02:43:29;;;;;;;11.33;9.50;;;19.10;99.90;;;;;;5050342;28;20221;-70
2023/06/29 02:45:55;;;;;;;9.57;8.68;;;19.10;99.90;;;;;;5050972;28;20174;-71
2023/06/29 02:48:21;;;;;;;9.03;8.13;;;19.10;99.90;;;;;;5051204;28;20649;-71
2023/06/29 02:50:46;;;;;;;12.50;7.77;;;19.20;99.90;;;;;;5050933;28;20171;-70
2023/06/29 02:53:16;;;;;;;12.37;8.87;;;19.20;99.90;;;;;;5050315;28;20182;-70
2023/06/29 02:55:41;;;;;;;8.63;7.03;;;19.20;99.90;;;;;;5050863;28;20167;-71
2023/06/29 02:58:07;;;;;;;10.90;6.97;;;19.20;99.90;;;;;;5049915;28;20204;-71
2023/06/29 03:00:32;;;;;;;7.73;6.40;;;19.20;99.90;;;;;;5050777;28;20240;-71
2023/06/29 03:02:58;;;;;;;9.87;7.20;;;19.20;99.90;;;;;;5050533;28;20261;-71
2023/06/29 03:05:24;;;;;;;9.20;6.90;;;19.20;99.90;;;;;;5050530;28;20232;-71
2023/06/29 03:07:49;;;;;;;8.30;7.07;;;19.30;99.90;;;;;;5050396;28;20270;-71
2023/06/29 03:10:15;;;;;;;8.10;6.40;;;19.20;99.90;;;;;;5050787;28;20167;-71
2023/06/29 03:12:41;;;;;;;12.30;7.67;;;19.20;99.90;;;;;;5050181;28;20244;-71
2023/06/29 03:15:07;;;;;;;9.27;6.87;;;19.10;99.90;;;;;;5050535;28;20611;-71
2023/06/29 03:17:33;;;;;;;11.47;7.93;;;19.00;99.90;;;;;;5049212;28;20658;-71
2023/06/29 03:19:59;;;;;;;8.67;7.80;;;19.00;99.90;;;;;;5050755;28;20263;-71
2023/06/29 03:22:27;;;;;;;13.57;8.33;;;19.00;99.90;;;;;;5050579;28;20257;-71
2023/06/29 03:24:53;;;;;;;9.33;8.33;;;19.00;99.90;;;;;;5050222;28;20207;-71
2023/06/29 03:27:19;;;;;;;8.10;7.30;;;19.00;99.90;;;;;;5050517;28;20668;-71
2023/06/29 03:29:47;;;;;;;11.17;7.50;;;19.00;99.90;;;;;;5049965;28;20174;-71
2023/06/29 03:32:12;;;;;;;8.37;7.57;;;19.10;99.90;;;;;;5050699;28;20168;-71
2023/06/29 03:34:38;;;;;;;9.93;8.23;;;19.10;99.90;;;;;;5049808;28;20285;-71
2023/06/29 03:37:04;;;;;;;9.27;7.67;;;19.10;99.90;;;;;;5050411;28;20325;-71
2023/06/29 03:39:29;;;;;;;8.67;7.50;;;19.20;99.90;;;;;;5050273;28;20183;-71
2023/06/29 03:41:55;;;;;;;8.33;7.40;;;19.10;99.90;;;;;;5050512;28;20465;-71
2023/06/29 03:44:20;;;;;;;9.67;7.60;;;19.20;99.90;;;;;;5049686;28;20210;-71
2023/06/29 03:46:47;;;;;;;9.77;7.60;;;19.20;99.90;;;;;;5050455;28;20262;-71
2023/06/29 03:49:13;;;;;;;10.80;7.07;;;19.20;99.90;;;;;;5049114;28;20266;-71
2023/06/29 03:51:38;;;;;;;12.37;7.10;;;19.20;99.90;;;;;;5050245;28;20275;-71
2023/06/29 03:54:04;;;;;;;9.40;7.30;;;19.20;99.90;;;;;;5049555;28;20210;-71
2023/06/29 03:56:31;;;;;;;9.57;7.57;;;19.30;99.90;;;;;;5050503;28;20453;-71
2023/06/29 03:58:56;;;;;;;7.43;6.73;;;19.30;99.90;;;;;;5050052;28;20286;-71
2023/06/29 04:01:22;;;;;;;8.60;6.73;;;19.30;99.90;;;;;;5050042;28;20265;-71
2023/06/29 04:03:48;;;;;;;7.70;6.80;;;19.40;99.90;;;;;;5049466;28;20211;-71
2023/06/29 04:06:13;;;;;;;11.13;6.90;;;19.40;99.90;;;;;;5049948;28;20183;-71
2023/06/29 04:08:39;;;;;;;9.73;7.50;;;19.40;99.90;;;;;;5050200;28;20179;-71
2023/06/29 04:11:04;;;;;;;7.87;7.07;;;19.40;99.90;;;;;;5053265;28;20174;-71
2023/06/29 04:13:30;;;;;;;12.67;7.40;;;19.50;99.90;;;;;;5053289;28;20584;-71
2023/06/29 04:15:56;;;;;;;7.87;7.07;;;19.50;99.90;;;;;;5053285;28;20175;-71
2023/06/29 04:18:22;;;;;;;8.35;7.55;;;19.60;99.90;;;;;;5053441;28;20170;-71
2023/06/29 04:20:47;;;;;;;7.63;6.77;;;19.60;99.90;;;;;;5053398;28;20559;-71
2023/06/29 04:23:15;;;;;;;8.87;7.87;;;19.70;99.90;;;;;;5053216;28;20171;-71
2023/06/29 04:25:44;;;;;;;9.23;8.33;;;19.70;99.90;;;;;;5040299;28;20248;-71
2023/06/29 04:28:12;;;;;;;9.83;8.63;;;19.70;99.90;;;;;;5053570;28;20231;-71
2023/06/29 04:30:41;;;;;;;9.03;7.23;;;19.70;99.90;;;;;;5037358;28;20186;-71
2023/06/29 04:33:10;;;;;;;8.10;7.30;;;19.70;99.90;;;;;;5052949;28;20186;-70
2023/06/29 04:35:42;;;;;;;7.83;7.03;;;19.60;99.90;;;;;;5053222;28;20179;-70
2023/06/29 04:38:09;;;;;;;9.53;7.23;;;19.70;99.90;;;;;;5053379;28;20225;-70
2023/06/29 04:40:35;;;;;;;9.63;7.57;;;19.70;99.90;;;;;;5053586;28;20653;-70
2023/06/29 04:43:02;;;;;;;13.00;7.07;;;19.70;99.90;;;;;;5052752;28;20229;-70
2023/06/29 04:45:28;;;;;;;8.03;7.30;;;19.70;99.90;;;;;;5051706;28;20701;-70
2023/06/29 04:47:56;;;;;;;10.60;6.47;;;19.70;99.90;;;;;;5053036;28;20174;-70
2023/06/29 04:50:25;;;;;;;11.50;7.87;;;19.80;99.90;;;;;;5053087;28;20193;-71
2023/06/29 04:52:55;;;;;;;9.13;6.33;;;20.00;99.90;;;;;;5052517;28;20195;-71
2023/06/29 04:55:22;;;;;;;9.85;6.75;;;20.00;99.90;;;;;;5052406;28;20228;-71
2023/06/29 04:57:47;;;;;;;9.20;6.47;;;20.00;99.90;;;;;;5050967;28;20733;-71
2023/06/29 05:00:14;;;;;;;7.57;6.80;;;20.10;99.90;;;;;;5052603;28;20269;-71
2023/06/29 05:02:40;;;;;;;9.57;6.47;;;20.20;99.90;;;;;;5052310;28;20646;-71
2023/06/29 05:05:06;;;;;;;7.65;7.03;;;20.30;99.90;;;;;;5052685;28;20218;-71
2023/06/29 05:07:32;;;;;;;8.13;7.47;;;20.50;99.90;;;;;;5052805;28;20257;-71
2023/06/29 05:09:58;;;;;;;9.07;6.95;;;20.60;99.90;;;;;;5052718;28;20282;-71
2023/06/29 05:12:24;;;;;;;7.90;7.10;;;20.70;99.90;;;;;;5052668;28;20167;-71
2023/06/29 05:14:50;;;;;;;7.37;6.67;;;20.80;99.90;;;;;;5052665;28;20284;-71
2023/06/29 05:17:17;;;;;;;8.87;6.40;;;20.90;99.90;;;;;;5052752;28;20362;-71
2023/06/29 05:19:43;;;;;;;9.70;7.33;;;20.90;99.90;;;;;;5050607;28;20190;-71
2023/06/29 05:22:08;;;;;;;8.52;7.80;;;21.00;99.90;;;;;;5052432;28;20641;-70
2023/06/29 05:24:34;;;;;;;7.13;6.45;;;21.00;99.90;;;;;;5052235;28;20685;-71
2023/06/29 05:27:00;;;;;;;7.70;7.00;;;21.00;99.90;;;;;;5052377;28;20195;-71
2023/06/29 05:29:25;;;;;;;7.37;6.73;;;20.90;99.90;;;;;;5052516;28;20258;-70
2023/06/29 05:31:51;;;;;;;9.80;7.40;;;20.90;99.90;;;;;;5052117;28;20175;-71
2023/06/29 05:34:16;;;;;;;6.77;6.17;;;20.90;99.90;;;;;;5052052;28;20202;-71
2023/06/29 05:36:42;;;;;;;7.60;6.07;;;20.90;99.90;;;;;;5052235;28;20174;-71
2023/06/29 05:39:08;;;;;;;6.70;6.10;;;20.90;99.90;;;;;;5052340;28;20237;-71
2023/06/29 05:41:33;;;;;;;7.40;6.70;;;20.90;99.90;;;;;;5050920;28;20179;-71
2023/06/29 05:43:59;;;;;;;7.20;6.53;;;20.90;99.90;;;;;;5051359;28;20260;-71
2023/06/29 05:46:25;;;;;;;8.03;6.47;;;20.90;99.90;;;;;;5052340;28;20171;-71
2023/06/29 05:48:51;;;;;;;9.33;5.63;;;20.90;99.90;;;;;;5051850;28;20200;-71
2023/06/29 05:51:16;;;;;;;9.00;6.78;;;21.00;99.90;;;;;;5052069;28;20171;-71
2023/06/29 05:53:42;;;;;;;5.70;5.15;;;21.00;99.90;;;;;;5051482;28;20198;-70
2023/06/29 05:56:07;;;;;;;7.75;5.30;;;21.00;99.90;;;;;;5051962;28;20210;-71
2023/06/29 05:58:33;;;;;;;9.57;5.70;;;21.00;99.90;;;;;;5051942;28;20547;-71
2023/06/29 06:00:59;;;;;;;7.85;5.55;;;20.90;99.90;;;;;;5050299;28;20179;-71
2023/06/29 06:03:24;;;;;;;6.80;6.25;;;21.00;99.90;;;;;;5050095;28;20199;-70
2023/06/29 06:05:50;;;;;;;9.70;7.43;;;21.00;99.90;;;;;;5051548;28;20206;-70
2023/06/29 06:08:16;;;;;;;8.32;6.55;;;21.10;99.90;;;;;;5051653;28;20543;-71
2023/06/29 06:10:41;;;;;;;8.40;7.60;;;21.10;99.90;;;;;;5051479;28;20556;-70
2023/06/29 06:13:07;;;;;;;8.32;7.63;;;21.20;99.90;;;;;;5050943;28;20654;-70
2023/06/29 06:15:34;;;;;;;8.70;7.82;;;21.40;99.90;;;;;;5051276;28;20650;-70
2023/06/29 06:18:00;;;;;;;7.45;6.50;;;21.50;99.90;;;;;;5051080;28;20190;-70
2023/06/29 06:20:25;;;;;;;7.45;6.90;;;21.60;99.90;;;;;;5051215;28;20193;-70
2023/06/29 06:22:51;;;;;;;7.35;6.65;;;21.70;99.90;;;;;;5050977;28;20551;-70
2023/06/29 06:25:17;;;;;;;10.07;6.57;;;21.80;99.90;;;;;;5051213;28;20267;-70
2023/06/29 06:27:44;;;;;;;7.30;6.60;;;22.00;99.90;;;;;;5050891;28;20187;-71
2023/06/29 06:30:10;;;;;;;7.82;7.00;;;22.20;99.90;;;;;;5051293;28;20199;-70
2023/06/29 06:32:38;;;;;;;8.50;7.68;;;22.40;99.90;;;;;;5050309;28;20518;-70
2023/06/29 06:35:07;;;;;;;7.47;6.78;;;22.60;99.90;;;;;;5051067;28;20619;-70
2023/06/29 06:37:34;;;;;;;6.47;5.88;;;22.80;99.90;;;;;;5051067;28;20661;-71
2023/06/29 06:40:00;;;;;;;7.40;6.70;;;23.00;99.90;;;;;;5050888;28;20185;-71
2023/06/29 06:42:26;;;;;;;6.78;5.75;;;23.00;99.90;;;;;;5050856;28;20183;-70
2023/06/29 06:44:54;;;;;;;7.13;6.28;;;23.10;99.90;;;;;;5050351;28;20263;-69
2023/06/29 06:47:20;;;;;;;5.88;5.35;;;23.20;99.90;;;;;;5051612;28;20638;-70
2023/06/29 06:49:47;;;;;;;5.55;5.15;;;23.20;99.90;;;;;;5051412;28;20216;-70
2023/06/29 06:52:12;;;;;;;6.00;5.35;;;23.30;99.90;;;;;;5049851;28;20179;-70
2023/06/29 06:54:38;;;;;;;6.22;5.65;;;23.40;99.90;;;;;;5050201;28;20201;-70
2023/06/29 06:57:04;;;;;;;7.15;6.47;;;23.50;99.90;;;;;;5049390;28;20657;-70
2023/06/29 06:59:29;;;;;;;8.77;5.88;;;23.50;99.90;;;;;;5050278;28;20190;-70
2023/06/29 07:01:55;;;;;;;7.38;6.35;;;23.60;99.90;;;;;;5049501;28;20201;-71
2023/06/29 07:04:20;;;;;;;7.50;6.90;;;23.70;99.90;;;;;;5050156;28;20289;-70
2023/06/29 07:06:46;;;;;;;9.10;8.43;;;23.90;99.90;;;;;;5050823;28;20257;-71
2023/06/29 07:09:12;;;;;;;6.00;5.40;;;24.10;99.90;;;;;;5051199;28;20163;-71
2023/06/29 07:11:38;;;;;;;5.65;5.22;;;24.40;99.90;;;;;;5050836;28;20175;-71
2023/06/29 07:14:04;;;;;;;6.80;6.03;;;24.60;99.90;;;;;;5050230;28;20234;-70
2023/06/29 07:16:30;;;;;;;8.63;6.35;;;24.90;99.90;;;;;;5050842;28;20223;-71
2023/06/29 07:19:11;;;;;;;4.47;4.07;;;25.10;99.90;;;;;;5049734;28;20736;-72
2023/06/29 07:21:37;;;;;;;5.85;4.72;;;25.30;99.90;;;;;;5050840;28;20171;-70
2023/06/29 07:24:03;;;;;;;5.97;4.80;;;25.50;99.90;;;;;;5048950;28;20211;-70
2023/06/29 07:26:29;;;;;;;6.90;4.63;;;25.50;99.90;;;;;;5050589;28;20191;-70
2023/06/29 07:28:54;;;;;;;6.40;5.68;;;25.50;99.90;;;;;;5050547;28;20167;-71
2023/06/29 07:31:27;;;;;;;7.70;5.25;;;25.50;99.90;;;;;;5050742;28;20163;-71
2023/06/29 07:33:54;;;;;;;7.45;5.65;;;25.50;99.90;;;;;;5050175;28;20202;-71
2023/06/29 07:36:25;;;;;;;5.25;4.75;;;25.30;99.90;;;;;;5051196;28;20179;-70
2023/06/29 07:38:51;;;;;;;10.15;5.47;;;25.30;99.90;;;;;;5050875;28;20170;-71
2023/06/29 07:41:17;;;;;;;5.95;5.00;;;25.30;99.90;;;;;;5050651;28;20203;-71
2023/06/29 07:43:47;;;;;;;6.40;5.88;;;25.20;99.90;;;;;;5051826;28;20574;-70
2023/06/29 07:46:13;;;;;;;5.63;5.18;;;25.30;99.90;;;;;;5054793;28;20171;-70
2023/06/29 07:48:38;;;;;;;5.72;5.22;;;25.40;99.90;;;;;;5053463;28;20594;-71
2023/06/29 07:51:04;;;;;;;8.80;7.97;;;25.60;99.90;;;;;;5054546;28;20646;-71
2023/06/29 07:53:31;;;;;;;6.75;6.15;;;25.70;99.90;;;;;;5054317;28;20309;-71
2023/06/29 07:56:00;;;;;;;7.53;6.82;;;25.80;99.90;;;;;;5053863;28;20221;-71
2023/06/29 07:58:28;;;;;;;6.85;5.93;;;25.80;99.90;;;;;;5054489;28;20220;-71
2023/06/29 08:00:55;;;;;;;9.50;6.95;;;25.80;99.90;;;;;;5054475;28;20162;-71
2023/06/29 08:03:21;;;;;;;8.13;6.70;;;25.80;99.90;;;;;;5053997;28;20222;-70
2023/06/29 08:05:46;;;;;;;6.57;5.97;;;25.80;99.90;;;;;;5054171;28;20610;-71
2023/06/29 08:08:12;;;;;;;10.00;6.25;;;25.70;99.90;;;;;;5054250;28;20175;-71
2023/06/29 08:10:38;;;;;;;7.60;5.60;;;25.70;99.90;;;;;;5054277;28;20167;-71
2023/06/29 08:13:03;;;;;;;6.40;5.18;;;25.80;99.90;;;;;;5053984;28;20672;-71
2023/06/29 08:15:29;;;;;;;7.88;6.30;;;25.90;99.90;;;;;;5054298;28;20195;-71
2023/06/29 08:17:55;;;;;;;7.53;5.55;;;25.90;99.90;;;;;;5052671;28;20174;-70
2023/06/29 08:20:22;;;;;;;6.45;5.65;;;25.90;99.90;;;;;;5054189;28;20645;-70
2023/06/29 08:22:48;;;;;;;7.82;5.80;;;25.90;99.90;;;;;;5053852;28;20202;-71
2023/06/29 08:25:14;;;;;;;7.13;6.07;;;26.00;99.90;;;;;;5053942;28;20211;-71
2023/06/29 08:27:41;;;;;;;7.22;5.88;;;26.00;99.90;;;;;;5053703;28;20183;-72
2023/06/29 08:30:07;;;;;;;8.02;5.00;;;25.90;99.90;;;;;;5053982;28;20167;-70
2023/06/29 08:32:33;;;;;;;6.53;5.57;;;25.80;99.90;;;;;;5053627;28;20182;-69
2023/06/29 08:34:59;;;;;;;7.47;5.32;;;25.60;99.90;;;;;;5053525;28;20269;-70
2023/06/29 08:37:24;;;;;;;6.10;5.60;;;25.60;99.90;;;;;;5053563;28;20187;-71
2023/06/29 08:42:18;;;;;;;7.97;5.93;;;25.90;99.90;;;;;;5091093;28;20636;-69
2023/06/29 08:44:43;;;;;;;5.38;4.88;;;26.30;99.90;;;;;;5093670;28;20201;-70
2023/06/29 08:47:11;;;;;;;11.88;6.78;;;26.90;99.90;;;;;;5093689;28;20315;-70
2023/06/29 08:49:38;;;;;;;8.52;6.25;;;27.30;99.90;;;;;;5093706;28;20249;-69
2023/06/29 08:52:06;;;;;;;7.22;6.50;;;27.70;99.90;;;;;;5055046;28;20208;-70
2023/06/29 08:54:32;;;;;;;11.27;7.68;;;28.00;99.90;;;;;;5072705;28;20170;-70
2023/06/29 08:57:00;;;;;;;6.35;5.70;;;28.20;99.90;;;;;;5055341;28;20207;-69
2023/06/29 08:59:27;;;;;;;9.25;5.75;;;28.50;99.90;;;;;;5073511;28;20185;-70
2023/06/29 09:01:53;;;;;;;6.40;5.75;;;28.80;99.90;;;;;;5072899;28;20228;-70
2023/06/29 09:04:20;;;;;;;7.03;6.30;;;29.10;99.90;;;;;;5072882;28;20240;-70
2023/06/29 09:06:46;;;;;;;8.18;6.85;;;29.40;99.90;;;;;;5073343;28;20170;-70
2023/06/29 09:09:12;;;;;;;10.10;7.07;;;29.80;99.90;;;;;;5073345;28;20166;-70
2023/06/29 09:11:38;;;;;;;10.07;8.50;;;30.10;99.90;;;;;;5073368;28;20252;-70
2023/06/29 09:14:06;;;;;;;11.40;9.05;;;30.40;99.90;;;;;;5072914;28;20209;-70
2023/06/29 09:16:34;;;;;;;9.77;7.00;;;30.80;99.90;;;;;;5073076;28;20181;-70
2023/06/29 09:19:03;;;;;;;10.32;7.65;;;31.10;99.90;;;;;;5072960;28;20167;-70
2023/06/29 09:21:29;;;;;;;10.15;7.47;;;31.20;99.90;;;;;;5073128;28;20243;-70
2023/06/29 09:23:58;;;;;;;12.48;7.93;;;31.10;99.90;;;;;;5072266;28;20194;-70
2023/06/29 09:26:28;;;;;;;9.45;7.90;;;31.00;99.90;;;;;;5071705;28;20193;-70
2023/06/29 09:28:59;;;;;;;11.65;8.50;;;31.20;99.90;;;;;;5072234;28;20644;-70
2023/06/29 09:31:32;;;;;;;12.40;9.70;;;31.50;99.90;;;;;;5071455;28;20190;-70
2023/06/29 09:34:16;;;;;;;11.27;8.40;;;31.80;99.90;;;;;;5071415;28;20178;-70
2023/06/29 09:36:42;;;;;;;14.52;11.38;;;32.00;99.90;;;;;;5044150;28;20578;-70
2023/06/29 09:39:07;;;;;;;12.50;9.20;;;32.20;99.90;;;;;;5070273;28;20178;-70
2023/06/29 09:41:48;;;;;;;13.65;9.23;;;32.50;99.90;;;;;;5072218;28;20241;-70
2023/06/29 09:44:21;;;;;;;14.27;9.10;;;32.60;99.90;;;;;;5072054;28;20204;-69
2023/06/29 09:46:51;;;;;;;12.45;9.68;;;32.00;99.90;;;;;;5072182;28;20186;-70
2023/06/29 09:49:19;;;;;;;13.90;10.48;;;31.80;99.90;;;;;;5072455;28;20196;-71
2023/06/29 09:51:48;;;;;;;15.02;11.77;;;32.00;99.90;;;;;;5071917;28;20194;-71
2023/06/29 09:54:17;;;;;;;15.23;9.55;;;32.00;99.90;;;;;;5071717;28;20503;-70
2023/06/29 09:56:44;;;;;;;13.43;11.50;;;32.10;99.90;;;;;;5072036;28;20182;-70
2023/06/29 09:59:10;;;;;;;18.73;12.65;;;32.20;99.90;;;;;;5071919;28;20189;-70
2023/06/29 10:01:43;;;;;;;12.35;10.40;;;32.20;99.90;;;;;;5071902;28;20677;-70
2023/06/29 10:04:09;;;;;;;13.18;8.85;;;32.10;99.90;;;;;;5071792;28;20548;-70
2023/06/29 10:06:50;;;;;;;14.48;10.65;;;31.20;99.90;;;;;;5054078;28;20231;-70
2023/06/29 10:09:20;;;;;;;12.07;10.32;;;30.40;99.90;;;;;;5054181;28;20551;-70
2023/06/29 10:11:50;;;;;;;13.40;10.07;;;29.90;99.90;;;;;;5071978;28;20604;-70
2023/06/29 10:14:18;;;;;;;14.20;11.52;;;29.40;99.90;;;;;;5071617;28;20189;-70
2023/06/29 10:16:50;;;;;;;14.90;12.50;;;29.20;99.90;;;;;;5071731;28;20166;-70
2023/06/29 10:19:21;;;;;;;14.05;10.00;;;28.80;99.90;;;;;;5054133;28;20224;-70
2023/06/29 10:21:52;;;;;;;18.13;9.52;;;28.70;99.90;;;;;;5053859;28;20194;-69
2023/06/29 10:24:24;;;;;;;11.32;9.65;;;28.70;99.90;;;;;;5053666;28;20712;-70
2023/06/29 10:26:51;;;;;;;14.15;10.68;;;29.10;99.90;;;;;;5071171;28;20178;-70
2023/06/29 10:29:17;;;;;;;15.15;11.20;;;29.30;99.90;;;;;;5071744;28;20617;-70
2023/06/29 10:31:49;;;;;;;14.85;10.85;;;29.50;99.90;;;;;;5071713;28;20316;-70
2023/06/29 10:34:15;;;;;;;16.92;10.18;;;29.50;99.90;;;;;;5071339;28;20173;-70
2023/06/29 10:36:49;;;;;;;14.35;9.27;;;29.70;99.90;;;;;;5071862;28;20170;-70
2023/06/29 10:39:56;;;;;;;14.48;11.05;;;29.60;99.90;;;;;;5071599;28;20174;-70
2023/06/29 10:42:22;;;;;;;12.13;10.35;;;29.40;99.90;;;;;;5009358;28;20207;-70
2023/06/29 10:44:47;;;;;;;13.77;9.73;;;29.30;99.90;;;;;;5008989;28;20207;-70
2023/06/29 10:47:28;;;;;;;13.48;10.15;;;29.20;99.90;;;;;;5020047;28;20198;-70
2023/06/29 10:50:08;;;;;;;18.63;10.50;;;29.20;99.90;;;;;;5057444;28;20180;-71
2023/06/29 10:52:35;;;;;;;15.10;10.02;;;29.30;99.90;;;;;;5071274;28;20512;-70
2023/06/29 10:55:20;;;;;;;13.18;9.98;;;29.60;99.90;;;;;;5071175;28;20174;-71
2023/06/29 10:57:58;;;;;;;12.27;9.07;;;29.30;99.90;;;;;;5071389;28;20219;-70
2023/06/29 11:00:25;;;;;;;12.25;9.10;;;28.90;99.90;;;;;;5071699;28;20226;-70
2023/06/29 11:02:52;;;;;;;14.75;8.93;;;28.50;99.90;;;;;;5071187;28;20182;-70
2023/06/29 11:05:19;;;;;;;11.88;8.45;;;28.50;99.90;;;;;;5071247;28;20226;-70
2023/06/29 11:07:52;;;;;;;11.70;8.98;;;28.60;99.90;;;;;;5071061;28;20213;-70
2023/06/29 11:10:20;;;;;;;14.43;9.23;;;28.90;99.90;;;;;;5071260;28;20319;-70
2023/06/29 11:12:47;;;;;;;10.43;8.05;;;29.40;99.90;;;;;;5071023;28;20162;-71
2023/06/29 11:15:15;;;;;;;10.50;7.50;;;29.60;99.90;;;;;;5071450;28;20173;-70
2023/06/29 11:17:42;;;;;;;11.57;7.53;;;29.70;99.90;;;;;;5071290;28;20535;-70
2023/06/29 11:20:13;;;;;;;8.98;6.50;;;29.90;99.90;;;;;;5075214;28;20190;-70
2023/06/29 11:22:39;;;;;;;9.77;7.82;;;30.10;99.90;;;;;;5074466;28;20170;-70
2023/06/29 11:25:07;;;;;;;7.90;7.07;;;29.90;99.90;;;;;;5075176;28;20584;-70
2023/06/29 11:27:33;;;;;;;8.02;7.07;;;29.60;99.90;;;;;;5075081;28;20177;-70
2023/06/29 11:29:59;;;;;;;12.00;8.10;;;29.00;99.90;;;;;;5057058;28;20196;-70
2023/06/29 11:32:27;;;;;;;14.10;8.32;;;28.60;99.90;;;;;;5075219;28;20180;-70
2023/06/29 11:35:01;;;;;;;12.75;8.13;;;28.40;99.90;;;;;;5074946;28;20178;-70
2023/06/29 11:37:27;;;;;;;12.30;7.78;;;28.30;99.90;;;;;;5075211;28;20170;-70
2023/06/29 11:39:53;;;;;;;10.43;8.80;;;28.30;99.90;;;;;;5075007;28;20174;-71
2023/06/29 11:42:21;;;;;;;12.02;8.98;;;28.50;99.90;;;;;;5074459;28;20660;-70
2023/06/29 11:44:51;;;;;;;12.38;9.55;;;28.70;99.90;;;;;;5056594;28;20202;-72
2023/06/29 11:47:17;;;;;;;11.73;9.25;;;28.80;99.90;;;;;;5074790;28;20166;-71
2023/06/29 11:49:43;;;;;;;14.70;9.32;;;28.80;99.90;;;;;;5074330;28;20170;-70
2023/06/29 11:52:09;;;;;;;15.43;9.82;;;28.70;99.90;;;;;;5074503;28;20162;-70
2023/06/29 11:54:35;;;;;;;12.00;9.20;;;28.50;99.90;;;;;;5074356;28;20182;-71
2023/06/29 11:57:01;;;;;;;13.85;9.98;;;28.40;99.90;;;;;;5074678;28;20174;-70
2023/06/29 11:59:27;;;;;;;12.68;9.63;;;28.30;99.90;;;;;;5055634;28;20178;-70
2023/06/29 12:01:52;;;;;;;17.52;10.63;;;28.00;99.90;;;;;;5074139;28;20224;-70
2023/06/29 12:04:18;;;;;;;15.65;10.73;;;27.90;99.90;;;;;;5074136;28;20679;-70
2023/06/29 12:06:54;;;;;;;15.98;11.68;;;27.80;99.90;;;;;;5074321;28;20263;-70
2023/06/29 12:09:20;;;;;;;15.48;10.50;;;27.60;99.90;;;;;;5056413;28;20165;-70
2023/06/29 12:11:58;;;;;;;13.73;10.32;;;27.30;99.90;;;;;;5073498;28;20202;-70
2023/06/29 12:14:28;;;;;;;14.57;10.60;;;27.00;99.90;;;;;;5056253;28;20178;-70
2023/06/29 12:16:54;;;;;;;14.00;11.45;;;27.10;99.90;;;;;;5074178;28;20280;-70
2023/06/29 12:19:20;;;;;;;14.98;11.32;;;27.10;99.90;;;;;;5074305;28;20197;-70
2023/06/29 12:21:46;;;;;;;13.23;11.05;;;27.20;99.90;;;;;;5073987;28;20599;-70
2023/06/29 12:24:16;;;;;;;14.65;10.93;;;26.90;99.90;;;;;;5073559;28;20292;-70
2023/06/29 12:26:42;;;;;;;14.63;10.98;;;26.70;99.90;;;;;;5074558;28;20217;-70
2023/06/29 12:29:09;;;;;;;17.30;13.82;;;26.50;99.90;;;;;;5073638;28;20201;-70
2023/06/29 12:31:35;;;;;;;15.63;11.98;;;26.40;99.90;;;;;;5055255;28;20683;-70
2023/06/29 12:34:01;;;;;;;18.17;14.88;;;26.50;99.90;;;;;;5055413;28;20216;-70
2023/06/29 12:36:27;;;;;;;15.48;10.70;;;26.40;99.90;;;;;;5074116;28;20206;-70
2023/06/29 12:38:53;;;;;;;13.85;11.25;;;26.40;99.90;;;;;;5054085;28;20644;-70
2023/06/29 12:41:18;;;;;;;17.85;11.77;;;26.40;99.90;;;;;;5073585;28;20212;-69
2023/06/29 12:43:44;;;;;;;17.60;11.60;;;26.30;99.90;;;;;;5073730;28;20205;-70